Time;durP1;ratioP1;P1;durP2;ratioP2;P2;SDS_P1;SDS_P2;PMS_P1;PMS_P2;Temp;Humidity;BMP_temperature;BMP_pressure;BME280_temperature;BME280_humidity;BME280_pressure;Samples;Min_cycle;Max_cycle;Signal;HPM_P1;HPM_P2
2021/09/02 00:01:10;;;;;;;7.93;5.90;;;;;;;15.96;73.25;100936.25;5031523;28;20026;-64
2021/09/02 00:03:36;;;;;;;9.85;6.30;;;;;;;16.00;73.02;100940.34;5031324;28;20443;-64
2021/09/02 00:06:01;;;;;;;8.57;5.63;;;;;;;15.99;73.32;100935.97;5031379;28;20045;-64
2021/09/02 00:08:27;;;;;;;7.22;5.50;;;;;;;16.01;73.71;100942.06;5031343;28;20159;-64
2021/09/02 00:10:53;;;;;;;9.15;6.18;;;;;;;16.04;73.96;100945.31;5031331;28;20029;-64
2021/09/02 00:13:18;;;;;;;6.95;4.90;;;;;;;16.01;74.01;100940.19;5015020;28;20048;-64
2021/09/02 00:15:44;;;;;;;9.00;6.45;;;;;;;16.04;73.64;100952.56;5011448;28;20041;-65
2021/09/02 00:18:10;;;;;;;8.00;6.05;;;;;;;16.00;73.62;100940.34;5011263;28;20491;-64
2021/09/02 00:20:35;;;;;;;10.02;6.30;;;;;;;15.99;73.86;100944.06;5011503;28;20025;-65
2021/09/02 00:23:01;;;;;;;8.70;5.45;;;;;;;15.97;73.77;100948.78;5011551;28;20029;-64
2021/09/02 00:25:26;;;;;;;8.23;5.97;;;;;;;15.97;73.77;100959.59;5011411;28;20037;-65
2021/09/02 00:27:52;;;;;;;8.07;5.63;;;;;;;15.96;73.94;100958.75;5011327;28;20025;-64
2021/09/02 00:30:17;;;;;;;7.50;5.68;;;;;;;15.90;74.23;100960.22;5011305;28;20124;-65
2021/09/02 00:32:43;;;;;;;9.77;6.20;;;;;;;15.85;74.79;100957.13;5011179;28;20026;-64
2021/09/02 00:35:09;;;;;;;8.10;5.82;;;;;;;15.83;75.29;100959.13;5011248;28;20033;-65
2021/09/02 00:37:34;;;;;;;8.40;5.97;;;;;;;15.79;75.79;100962.28;5011135;28;20022;-65
2021/09/02 00:40:00;;;;;;;8.13;6.05;;;;;;;15.79;76.27;100973.97;5011226;28;20441;-65
2021/09/02 00:42:26;;;;;;;11.23;6.55;;;;;;;15.76;76.13;100968.84;5011186;28;20026;-64
2021/09/02 00:44:51;;;;;;;9.13;6.57;;;;;;;15.80;76.54;100974.78;5010989;28;20065;-64
2021/09/02 00:47:19;;;;;;;8.85;6.20;;;;;;;15.74;76.52;100962.75;5026242;28;20029;-64
2021/09/02 00:49:45;;;;;;;10.63;7.00;;;;;;;15.74;76.90;100967.31;5010959;28;20529;-64
2021/09/02 00:52:15;;;;;;;9.43;6.18;;;;;;;15.66;76.69;100959.09;5011167;28;20026;-64
2021/09/02 00:54:46;;;;;;;8.93;6.70;;;;;;;15.77;76.85;100980.53;5010954;28;20489;-64
2021/09/02 00:57:13;;;;;;;9.07;6.35;;;;;;;15.75;77.08;100969.88;5010962;28;20036;-65
2021/09/02 00:59:39;;;;;;;9.15;6.38;;;;;;;15.73;77.04;100971.88;5010763;28;20030;-65
2021/09/02 01:02:07;;;;;;;9.73;5.85;;;;;;;15.70;77.31;100965.91;5009575;28;20033;-65
2021/09/02 01:04:33;;;;;;;9.55;6.75;;;;;;;15.67;77.68;100968.91;5009512;28;20498;-65
2021/09/02 01:07:00;;;;;;;9.02;6.40;;;;;;;15.68;77.71;100971.44;5010729;28;20044;-65
2021/09/02 01:09:26;;;;;;;8.18;6.13;;;;;;;15.68;77.85;100965.22;5010837;28;20036;-64
2021/09/02 01:11:52;;;;;;;9.02;6.88;;;;;;;15.66;77.64;100964.50;5010738;28;20044;-65
2021/09/02 01:14:18;;;;;;;9.65;6.95;;;;;;;15.65;77.49;100958.25;5010775;28;20037;-64
2021/09/02 01:16:46;;;;;;;8.40;6.07;;;;;;;15.62;77.65;100958.56;5010675;28;20038;-65
2021/09/02 01:19:11;;;;;;;9.20;6.75;;;;;;;15.56;77.83;100959.16;5010476;28;20037;-64
2021/09/02 01:21:37;;;;;;;12.25;6.35;;;;;;;15.47;77.92;100957.34;5009443;28;20037;-64
2021/09/02 01:24:03;;;;;;;9.75;6.90;;;;;;;15.41;78.34;100954.38;5010424;28;20481;-65
2021/09/02 01:26:28;;;;;;;9.57;6.20;;;;;;;15.48;78.96;100979.84;5010732;28;20048;-64
2021/09/02 01:28:53;;;;;;;12.88;7.18;;;;;;;15.39;79.31;100965.38;5010695;28;20092;-64
2021/09/02 01:31:20;;;;;;;8.85;6.30;;;;;;;15.35;79.67;100961.22;5010555;28;20061;-64
2021/09/02 01:33:49;;;;;;;9.95;6.75;;;;;;;15.38;80.07;100976.34;5010490;28;20022;-65
2021/09/02 01:36:15;;;;;;;11.38;7.03;;;;;;;15.24;80.34;100952.44;5010573;28;20084;-64
2021/09/02 01:38:42;;;;;;;12.05;6.90;;;;;;;15.30;80.48;100974.34;5010217;28;20038;-65
2021/09/02 01:41:08;;;;;;;11.60;7.15;;;;;;;15.34;80.49;100974.88;5025651;28;20148;-65
2021/09/02 01:43:33;;;;;;;11.88;7.45;;;;;;;15.32;80.58;100977.72;5010537;28;20141;-63
2021/09/02 01:45:59;;;;;;;11.85;7.03;;;;;;;15.28;80.81;100973.63;5010389;28;20117;-64
2021/09/02 01:48:24;;;;;;;9.65;6.70;;;;;;;15.16;81.09;100958.59;5009135;28;20022;-64
2021/09/02 01:50:50;;;;;;;8.80;6.78;;;;;;;15.20;81.66;100970.84;5010399;28;20029;-65
2021/09/02 01:53:18;;;;;;;9.52;6.35;;;;;;;15.21;81.63;100969.81;5010404;28;20030;-65
2021/09/02 01:55:46;;;;;;;9.30;7.07;;;;;;;15.12;81.41;100962.59;5010541;28;20116;-65
2021/09/02 01:58:12;;;;;;;10.25;6.47;;;;;;;15.17;81.68;100981.06;5029347;28;20022;-65
2021/09/02 02:00:38;;;;;;;11.25;7.38;;;;;;;15.09;81.92;100965.59;5012734;28;20394;-65
2021/09/02 02:03:04;;;;;;;10.30;7.22;;;;;;;15.06;82.12;100965.06;5013631;28;20061;-65
2021/09/02 02:05:30;;;;;;;9.45;6.47;;;;;;;15.03;82.00;100965.34;5029370;28;20040;-65
2021/09/02 02:07:55;;;;;;;9.93;7.35;;;;;;;15.01;82.43;100970.03;5014034;28;20049;-65
2021/09/02 02:10:26;;;;;;;9.93;7.05;;;;;;;14.96;82.83;100969.63;5014431;28;20038;-65
2021/09/02 02:12:52;;;;;;;10.70;6.43;;;;;;;14.97;82.62;100963.22;5013918;28;20026;-65
2021/09/02 02:15:18;;;;;;;12.10;6.75;;;;;;;14.90;82.96;100957.53;5026648;28;20107;-66
2021/09/02 02:17:44;;;;;;;10.15;6.72;;;;;;;14.90;82.94;100962.94;5017121;28;20053;-65
2021/09/02 02:20:11;;;;;;;10.52;7.45;;;;;;;14.79;83.17;100957.72;5033187;28;20032;-65
2021/09/02 02:22:37;;;;;;;10.60;6.93;;;;;;;14.74;84.05;100951.91;5033562;28;20033;-65
2021/09/02 02:25:04;;;;;;;13.23;7.40;;;;;;;14.75;84.50;100958.16;5033445;28;20088;-65
2021/09/02 02:27:29;;;;;;;9.95;6.70;;;;;;;14.72;84.77;100953.91;5033657;28;20041;-66
2021/09/02 02:29:55;;;;;;;8.18;6.28;;;;;;;14.75;84.56;100968.97;5033239;28;20037;-65
2021/09/02 02:32:20;;;;;;;10.98;6.72;;;;;;;14.66;84.74;100956.34;5033223;28;20090;-65
2021/09/02 02:34:46;;;;;;;9.70;6.82;;;;;;;14.70;84.24;100955.91;5033115;28;20034;-65
2021/09/02 02:37:11;;;;;;;10.77;6.95;;;;;;;14.74;84.25;100957.31;5033278;28;20027;-65
2021/09/02 02:39:38;;;;;;;10.07;7.30;;;;;;;14.68;84.47;100960.63;5032819;28;20585;-65
2021/09/02 02:42:08;;;;;;;9.35;6.70;;;;;;;14.71;84.67;100959.47;5033212;28;20106;-65
2021/09/02 02:44:34;;;;;;;13.82;7.57;;;;;;;14.71;83.89;100959.47;5033223;28;20469;-65
2021/09/02 02:47:00;;;;;;;10.18;6.65;;;;;;;14.69;84.20;100954.22;5033353;28;20464;-65
2021/09/02 02:49:25;;;;;;;10.07;7.03;;;;;;;14.69;83.99;100954.22;5032917;28;20171;-65
2021/09/02 02:51:52;;;;;;;8.73;6.82;;;;;;;14.69;83.69;100962.31;5032833;28;20083;-65
2021/09/02 02:54:18;;;;;;;11.88;7.43;;;;;;;14.66;83.73;100961.72;5033067;28;20045;-65
2021/09/02 02:56:44;;;;;;;11.82;8.40;;;;;;;14.58;83.99;100957.09;5048096;28;20031;-65
2021/09/02 02:59:10;;;;;;;12.45;7.38;;;;;;;14.57;84.14;100959.94;5047953;28;20116;-66
2021/09/02 03:01:35;;;;;;;10.38;7.85;;;;;;;14.53;84.54;100969.28;5048047;28;20120;-66
2021/09/02 03:04:00;;;;;;;9.77;7.55;;;;;;;14.47;84.49;100965.31;5047939;28;20494;-66
2021/09/02 03:06:26;;;;;;;13.30;8.02;;;;;;;14.37;84.80;100950.97;5032736;28;20440;-66
2021/09/02 03:08:51;;;;;;;11.98;7.72;;;;;;;14.30;85.30;100949.00;5032314;28;20163;-66
2021/09/02 03:11:17;;;;;;;15.23;8.30;;;;;;;14.18;85.57;100942.88;5031369;28;20446;-66
2021/09/02 03:13:42;;;;;;;10.70;8.25;;;;;;;14.28;85.16;100956.41;5032488;28;20025;-65
2021/09/02 03:16:08;;;;;;;13.98;8.13;;;;;;;14.11;85.79;100944.44;5032485;28;20366;-65
2021/09/02 03:18:34;;;;;;;13.77;8.40;;;;;;;14.22;86.12;100967.72;5032328;28;20041;-65
2021/09/02 03:20:59;;;;;;;11.40;7.47;;;;;;;14.16;86.66;100969.16;5032572;28;20044;-65
2021/09/02 03:23:24;;;;;;;12.70;7.72;;;;;;;14.10;86.92;100982.34;5032412;28;20087;-65
2021/09/02 03:25:50;;;;;;;10.25;7.47;;;;;;;14.04;86.35;100972.97;5032173;28;20047;-64
2021/09/02 03:28:16;;;;;;;10.02;7.53;;;;;;;14.06;87.03;100981.75;5032320;28;20427;-65
2021/09/02 03:30:41;;;;;;;10.60;7.35;;;;;;;14.04;87.01;100988.28;5032242;28;20504;-65
2021/09/02 03:33:07;;;;;;;9.60;6.97;;;;;;;13.98;87.42;100984.31;5031975;28;20120;-65
2021/09/02 03:35:32;;;;;;;12.75;7.80;;;;;;;13.93;87.50;100975.78;5032246;28;20479;-65
2021/09/02 03:37:58;;;;;;;11.25;8.05;;;;;;;13.95;87.63;100986.44;5032039;28;20029;-65
2021/09/02 03:40:23;;;;;;;10.48;8.13;;;;;;;13.91;87.77;100982.31;5031981;28;20112;-65
2021/09/02 03:42:48;;;;;;;13.02;7.68;;;;;;;13.89;87.81;100995.09;5031808;28;20033;-64
2021/09/02 03:45:14;;;;;;;11.38;8.10;;;;;;;13.85;87.54;100986.44;5031922;28;20378;-65
2021/09/02 03:47:46;;;;;;;13.77;8.20;;;;;;;13.83;87.54;100988.41;5017292;28;20021;-65
2021/09/02 03:50:12;;;;;;;12.63;7.65;;;;;;;13.76;87.34;100984.56;5024878;28;20029;-66
2021/09/02 03:52:37;;;;;;;14.45;8.18;;;;;;;13.74;87.52;101002.72;5018287;28;20100;-65
2021/09/02 03:55:04;;;;;;;11.57;7.43;;;;;;;13.70;88.43;100998.59;5022826;28;20084;-65
2021/09/02 03:57:29;;;;;;;13.25;7.60;;;;;;;13.62;88.05;101002.00;5021383;28;20038;-65
2021/09/02 03:59:55;;;;;;;12.05;7.93;;;;;;;13.55;88.23;100992.72;5017199;28;20029;-65
2021/09/02 04:02:20;;;;;;;13.23;8.07;;;;;;;13.56;88.16;100998.97;5025302;28;20026;-64
2021/09/02 04:04:45;;;;;;;12.02;8.25;;;;;;;13.52;88.66;101001.09;5016738;28;20145;-64
2021/09/02 04:07:11;;;;;;;13.30;8.35;;;;;;;13.46;88.72;101003.47;5023457;28;20048;-64
2021/09/02 04:09:36;;;;;;;12.85;8.18;;;;;;;13.38;89.44;101000.59;5021401;28;20037;-64
2021/09/02 04:12:02;;;;;;;12.30;8.38;;;;;;;13.32;89.97;100999.31;5017661;28;20094;-64
2021/09/02 04:14:27;;;;;;;13.55;8.85;;;;;;;13.33;90.07;101010.94;5024863;28;20120;-64
2021/09/02 04:16:55;;;;;;;15.75;8.73;;;;;;;13.32;89.94;101009.25;5017146;28;20041;-65
2021/09/02 04:19:21;;;;;;;11.02;7.95;;;;;;;13.29;90.44;101013.03;5024106;28;20066;-66
2021/09/02 04:21:47;;;;;;;12.57;7.82;;;;;;;13.26;90.13;101009.78;5019743;28;20083;-66
2021/09/02 04:24:12;;;;;;;14.05;8.38;;;;;;;13.25;90.73;101006.22;5018437;28;20371;-66
2021/09/02 04:26:37;;;;;;;11.98;7.80;;;;;;;13.23;90.03;101008.19;5023845;28;20433;-65
2021/09/02 04:29:03;;;;;;;17.05;9.23;;;;;;;13.18;90.18;101006.91;5026442;28;20025;-66
2021/09/02 04:31:28;;;;;;;14.02;8.77;;;;;;;13.08;90.83;100992.53;5026071;28;20373;-66
2021/09/02 04:33:54;;;;;;;14.15;8.25;;;;;;;13.14;90.55;101005.47;5019290;28;20072;-66
2021/09/02 04:36:19;;;;;;;15.40;8.88;;;;;;;13.21;90.72;101007.50;5019196;28;20087;-66
2021/09/02 04:38:45;;;;;;;17.10;8.38;;;;;;;13.19;90.28;100997.84;5022308;28;20036;-66
2021/09/02 04:41:10;;;;;;;13.05;8.57;;;;;;;13.25;90.24;101008.06;5014151;28;20030;-66
2021/09/02 04:43:36;;;;;;;15.63;8.02;;;;;;;13.30;90.36;101016.59;5014064;28;20087;-66
2021/09/02 04:46:01;;;;;;;13.70;8.90;;;;;;;13.30;90.94;101005.84;5016966;28;20041;-65
2021/09/02 04:48:27;;;;;;;14.70;8.60;;;;;;;13.39;90.37;101015.81;5019194;28;20109;-65
2021/09/02 04:50:52;;;;;;;11.25;8.55;;;;;;;13.40;90.35;101009.41;5028496;28;20402;-65
2021/09/02 04:53:19;;;;;;;10.75;8.52;;;;;;;13.42;90.33;101010.97;5022807;28;20442;-65
2021/09/02 04:55:44;;;;;;;13.40;8.45;;;;;;;13.44;90.29;101011.72;5017397;28;20029;-65
2021/09/02 04:58:12;;;;;;;12.68;8.48;;;;;;;13.47;90.20;101011.44;5019239;28;20496;-65
2021/09/02 05:00:38;;;;;;;16.77;8.98;;;;;;;13.47;90.65;101000.66;5016073;28;20037;-65
2021/09/02 05:03:06;;;;;;;11.77;8.40;;;;;;;13.59;89.93;101017.56;5037260;28;20053;-65
2021/09/02 05:05:32;;;;;;;16.65;8.70;;;;;;;13.58;90.11;101005.94;5018759;28;20042;-65
2021/09/02 05:07:58;;;;;;;16.27;8.55;;;;;;;13.70;89.89;101025.53;5010966;28;20029;-66
2021/09/02 05:10:25;;;;;;;16.35;8.52;;;;;;;13.71;89.64;101019.19;5010956;28;20357;-66
2021/09/02 05:12:51;;;;;;;18.63;9.10;;;;;;;13.77;88.88;101029.44;5010727;28;20030;-66
2021/09/02 05:15:20;;;;;;;13.82;8.85;;;;;;;13.79;89.22;101016.63;5010682;28;20037;-66
2021/09/02 05:17:47;;;;;;;15.45;8.23;;;;;;;13.88;88.55;101020.34;5009444;28;20030;-66
2021/09/02 05:20:13;;;;;;;18.02;8.27;;;;;;;14.00;87.89;101022.81;5010690;28;20362;-66
2021/09/02 05:22:40;;;;;;;12.50;8.57;;;;;;;14.03;88.30;101018.97;5025750;28;20026;-66
2021/09/02 05:25:06;;;;;;;16.17;8.68;;;;;;;14.10;87.89;101020.97;5010682;28;20029;-66
2021/09/02 05:27:32;;;;;;;14.13;8.38;;;;;;;14.13;88.21;101009.91;5010693;28;20021;-66
2021/09/02 05:29:58;;;;;;;17.52;8.68;;;;;;;14.22;88.59;101017.13;5010396;28;20042;-65
2021/09/02 05:32:23;;;;;;;17.17;8.70;;;;;;;14.33;88.03;101000.84;5013675;28;20034;-65
2021/09/02 05:34:49;;;;;;;18.13;9.57;;;;;;;14.41;87.54;101008.25;5014724;28;20141;-65
2021/09/02 05:37:14;;;;;;;18.77;8.55;;;;;;;14.58;87.09;101011.06;5021948;28;20476;-63
2021/09/02 05:39:39;;;;;;;18.30;8.13;;;;;;;14.71;86.90;101011.63;5023786;28;20025;-64
2021/09/02 05:42:05;;;;;;;11.55;7.15;;;;;;;14.73;86.41;101004.22;5031274;28;20482;-64
2021/09/02 05:44:31;;;;;;;19.73;8.38;;;;;;;15.01;85.57;101019.53;5048185;28;20036;-65
2021/09/02 05:46:56;;;;;;;10.40;6.80;;;;;;;15.18;84.70;101016.06;5048400;28;20037;-65
2021/09/02 05:49:22;;;;;;;9.95;7.15;;;;;;;15.30;83.55;101012.19;5033228;28;20037;-64
2021/09/02 05:51:49;;;;;;;8.73;6.60;;;;;;;15.46;81.33;101007.03;5033058;28;20120;-64
2021/09/02 05:54:14;;;;;;;11.70;6.72;;;;;;;15.70;79.83;101020.84;5033130;28;20520;-64
2021/09/02 05:56:40;;;;;;;9.00;6.15;;;;;;;15.88;78.98;101024.47;5033158;28;20037;-64
2021/09/02 05:59:05;;;;;;;10.32;7.00;;;;;;;16.12;77.15;101023.03;5033014;28;20478;-64
2021/09/02 06:01:31;;;;;;;9.00;6.55;;;;;;;16.25;76.76;101018.09;5032928;28;20717;-64
2021/09/02 06:03:56;;;;;;;12.85;6.53;;;;;;;16.27;76.38;101005.22;5032743;28;20110;-64
2021/09/02 06:06:22;;;;;;;9.73;6.13;;;;;;;16.54;75.85;101021.44;5033002;28;20045;-64
2021/09/02 06:08:47;;;;;;;9.20;6.03;;;;;;;16.67;74.23;101013.78;5032666;28;20017;-64
2021/09/02 06:11:13;;;;;;;8.75;5.80;;;;;;;16.85;71.93;101007.31;5032872;28;20120;-64
2021/09/02 06:13:38;;;;;;;11.15;6.47;;;;;;;17.02;72.01;101019.09;5032873;28;20025;-64
2021/09/02 06:16:04;;;;;;;9.68;6.13;;;;;;;17.19;71.69;101010.94;5032674;28;20044;-65
2021/09/02 06:18:30;;;;;;;11.60;6.25;;;;;;;17.43;71.06;101016.53;5032594;28;20079;-65
2021/09/02 06:20:55;;;;;;;10.65;6.55;;;;;;;17.55;69.58;101007.13;5032654;28;20086;-65
2021/09/02 06:23:21;;;;;;;10.40;6.75;;;;;;;17.85;67.56;101011.13;5032591;28;20033;-65
2021/09/02 06:25:46;;;;;;;10.60;6.93;;;;;;;17.95;66.88;101007.25;5032541;28;20033;-65
2021/09/02 06:28:12;;;;;;;9.75;6.30;;;;;;;18.21;65.84;101014.47;5022788;28;20029;-64
2021/09/02 06:30:38;;;;;;;9.25;5.82;;;;;;;18.39;65.45;101016.03;5012935;28;20021;-64
2021/09/02 06:33:04;;;;;;;7.13;5.32;;;;;;;18.56;65.16;101015.03;5005331;28;20069;-65
2021/09/02 06:35:30;;;;;;;8.95;5.65;;;;;;;18.83;62.34;101022.00;5011263;28;20676;-64
2021/09/02 06:37:56;;;;;;;8.65;5.45;;;;;;;18.88;62.16;101014.16;5012216;28;20038;-64
2021/09/02 06:40:21;;;;;;;11.80;5.68;;;;;;;18.95;62.72;101026.91;5019963;28;20022;-64
2021/09/02 06:42:47;;;;;;;10.10;5.88;;;;;;;19.08;62.84;101021.81;5046882;28;20033;-64
2021/09/02 06:45:12;;;;;;;12.80;5.65;;;;;;;19.23;61.83;101008.34;5023087;28;20042;-65
2021/09/02 06:47:39;;;;;;;13.80;5.60;;;;;;;19.34;61.09;101016.16;5012400;28;20076;-65
2021/09/02 06:50:06;;;;;;;9.50;5.78;;;;;;;19.49;60.94;101020.72;5012233;28;20088;-64
2021/09/02 06:52:31;;;;;;;9.50;6.13;;;;;;;19.64;60.10;101023.56;5012186;28;20033;-65
2021/09/02 06:54:58;;;;;;;12.85;6.43;;;;;;;19.80;59.95;101024.34;5012223;28;20052;-65
2021/09/02 06:57:24;;;;;;;10.95;6.47;;;;;;;19.98;59.24;101019.50;5012308;28;20080;-65
2021/09/02 06:59:49;;;;;;;12.35;5.80;;;;;;;20.16;58.84;101025.53;5010835;28;20026;-64
2021/09/02 07:02:15;;;;;;;9.15;5.32;;;;;;;20.30;58.06;101021.22;5010657;28;20398;-65
2021/09/02 07:04:40;;;;;;;9.23;6.15;;;;;;;20.42;57.36;101025.22;5012130;28;20481;-65
2021/09/02 07:07:06;;;;;;;9.63;5.45;;;;;;;20.55;57.30;101027.34;5032865;28;20045;-65
2021/09/02 07:09:31;;;;;;;8.25;5.38;;;;;;;20.64;57.55;101013.50;5033028;28;20017;-64
2021/09/02 07:11:58;;;;;;;9.82;5.88;;;;;;;20.79;56.91;101008.09;5032681;28;20379;-64
2021/09/02 07:14:23;;;;;;;10.45;5.43;;;;;;;20.93;56.57;101004.53;5032817;28;20398;-65
2021/09/02 07:16:49;;;;;;;8.82;4.30;;;;;;;21.18;55.66;101019.69;5031244;28;20025;-65
2021/09/02 07:19:14;;;;;;;7.45;5.68;;;;;;;21.31;54.83;101014.44;5032579;28;20045;-65
2021/09/02 07:21:40;;;;;;;8.05;5.22;;;;;;;21.43;54.45;101019.22;5032871;28;20033;-65
2021/09/02 07:24:05;;;;;;;8.10;4.55;;;;;;;21.54;53.75;101013.28;5032408;28;20029;-65
2021/09/02 07:26:31;;;;;;;8.52;5.53;;;;;;;21.60;53.56;101014.44;5031874;28;20036;-64
2021/09/02 07:28:56;;;;;;;8.90;5.28;;;;;;;21.62;53.49;101026.84;5032259;28;20052;-65
2021/09/02 07:31:22;;;;;;;7.45;5.05;;;;;;;21.64;53.56;101022.03;5031970;28;20115;-65
2021/09/02 07:33:47;;;;;;;6.95;4.13;;;;;;;21.71;53.01;101024.88;5031812;28;20021;-66
2021/09/02 07:36:13;;;;;;;5.68;4.18;;;;;;;21.76;52.60;101027.91;5032019;28;20033;-65
2021/09/02 07:38:39;;;;;;;6.00;4.10;;;;;;;21.81;52.39;101020.00;5031870;28;20078;-67
2021/09/02 07:41:04;;;;;;;5.30;3.85;;;;;;;22.00;52.52;101031.19;5031618;28;20112;-66
2021/09/02 07:43:30;;;;;;;7.05;4.28;;;;;;;22.15;51.94;101028.41;5031562;28;20116;-66
2021/09/02 07:45:55;;;;;;;8.93;4.22;;;;;;;22.22;51.54;101027.44;5030224;28;20175;-66
2021/09/02 07:48:21;;;;;;;10.80;4.65;;;;;;;22.34;50.86;101025.06;5031003;28;20391;-66
2021/09/02 07:50:46;;;;;;;8.48;4.70;;;;;;;22.45;51.20;101026.44;5046528;28;20124;-65
2021/09/02 07:53:12;;;;;;;6.32;4.15;;;;;;;22.57;50.76;101025.75;5030192;28;20040;-65
2021/09/02 07:55:37;;;;;;;6.18;4.20;;;;;;;22.74;50.63;101029.09;5030164;28;20021;-65
2021/09/02 07:58:03;;;;;;;12.00;3.97;;;;;;;22.91;50.09;101028.63;5030611;28;20063;-65
2021/09/02 08:00:29;;;;;;;8.63;4.47;;;;;;;23.08;49.53;101032.75;5031223;28;20025;-65
2021/09/02 08:02:54;;;;;;;6.70;4.25;;;;;;;23.23;49.19;101033.56;5031114;28;20172;-65
2021/09/02 08:05:20;;;;;;;6.85;4.28;;;;;;;23.35;48.91;101026.50;5031635;28;20113;-66
2021/09/02 08:07:50;;;;;;;7.95;3.67;;;;;;;23.59;48.75;101030.63;5031544;28;20493;-64
2021/09/02 08:10:19;;;;;;;8.65;4.28;;;;;;;24.01;47.16;101036.81;5031556;28;20402;-64
2021/09/02 08:12:44;;;;;;;7.18;4.20;;;;;;;24.43;46.35;101033.78;5031526;28;20104;-64
2021/09/02 08:15:11;;;;;;;7.45;4.22;;;;;;;24.90;45.08;101032.00;5031502;28;20109;-64
2021/09/02 08:17:37;;;;;;;5.70;4.00;;;;;;;25.36;43.92;101028.22;5031305;28;20037;-64
2021/09/02 08:20:03;;;;;;;8.05;4.07;;;;;;;25.97;42.83;101026.84;5031092;28;20033;-66
2021/09/02 08:22:29;;;;;;;9.25;4.80;;;;;;;26.84;41.42;101023.41;5030938;28;20068;-65
2021/09/02 08:24:54;;;;;;;7.28;4.20;;;;;;;27.78;39.27;101022.97;5029267;28;20037;-65
2021/09/02 08:27:20;;;;;;;8.88;4.35;;;;;;;28.49;38.31;101026.78;5030501;28;20025;-63
2021/09/02 08:29:46;;;;;;;6.30;3.83;;;;;;;29.11;36.68;101014.34;5030853;28;20030;-64
2021/09/02 08:32:12;;;;;;;4.78;4.07;;;;;;;29.58;35.78;101017.94;5030994;28;20363;-64
2021/09/02 08:34:38;;;;;;;7.85;3.83;;;;;;;29.82;34.76;101012.19;5046087;28;20039;-65
2021/09/02 08:37:04;;;;;;;5.38;4.07;;;;;;;29.98;34.87;101021.69;5030902;28;20489;-65
2021/09/02 08:39:29;;;;;;;4.85;3.78;;;;;;;30.01;34.80;101010.09;5045934;28;20038;-65
2021/09/02 08:41:56;;;;;;;7.32;4.13;;;;;;;29.99;34.58;101018.63;5030932;28;20045;-65
2021/09/02 08:44:21;;;;;;;8.38;3.85;;;;;;;29.62;35.28;101008.13;5030738;28;20044;-65
2021/09/02 08:46:47;;;;;;;6.53;4.07;;;;;;;29.60;35.66;101010.28;5030697;28;20466;-65
2021/09/02 08:49:18;;;;;;;7.05;3.78;;;;;;;29.20;36.18;101006.53;5030919;28;20029;-64
2021/09/02 08:51:44;;;;;;;6.82;3.97;;;;;;;28.78;36.94;101015.91;5030672;28;20116;-64
2021/09/02 08:54:10;;;;;;;7.07;3.70;;;;;;;28.38;37.35;101001.84;5045976;28;20121;-65
2021/09/02 08:56:35;;;;;;;6.53;4.22;;;;;;;28.32;37.10;101005.53;5030588;28;20470;-65
2021/09/02 08:59:01;;;;;;;4.75;4.00;;;;;;;28.15;37.91;100999.81;5030372;28;20034;-65
2021/09/02 09:01:26;;;;;;;5.45;3.80;;;;;;;27.81;38.22;101000.44;5030569;28;20055;-65
2021/09/02 09:03:52;;;;;;;8.43;4.20;;;;;;;27.48;38.64;100996.38;5030028;28;20133;-65
2021/09/02 09:06:27;;;;;;;5.43;4.13;;;;;;;27.13;39.07;100990.53;5045587;28;20102;-65
2021/09/02 09:08:53;;;;;;;7.30;4.10;;;;;;;27.31;39.07;101006.31;5045644;28;20040;-65
2021/09/02 09:11:30;;;;;;;7.50;3.70;;;;;;;27.02;39.57;101002.28;5030447;28;20037;-65
2021/09/02 09:14:14;;;;;;;7.40;4.10;;;;;;;26.89;40.16;101015.31;5029029;28;20032;-65
2021/09/02 09:16:40;;;;;;;7.22;4.20;;;;;;;26.65;40.48;101010.63;5030312;28;20033;-65
2021/09/02 09:19:06;;;;;;;7.65;4.10;;;;;;;26.56;40.61;101018.25;5030165;28;20096;-65
2021/09/02 09:21:31;;;;;;;6.18;3.70;;;;;;;26.41;40.49;101015.00;5030452;28;20120;-65
2021/09/02 09:24:01;;;;;;;4.35;3.45;;;;;;;26.28;40.72;101015.06;5030001;28;20033;-66
2021/09/02 09:26:27;;;;;;;6.47;4.30;;;;;;;26.25;40.96;101010.00;5030395;28;20036;-65
2021/09/02 09:28:58;;;;;;;4.85;3.67;;;;;;;26.18;40.57;101015.50;5030205;28;20555;-65
2021/09/02 09:31:34;;;;;;;6.80;3.90;;;;;;;26.08;40.60;101006.91;5029928;28;20095;-65
2021/09/02 09:34:06;;;;;;;8.43;3.85;;;;;;;26.08;40.52;101003.28;5029857;28;20034;-66
2021/09/02 09:36:34;;;;;;;8.68;4.43;;;;;;;26.04;40.83;101005.66;5045432;28;20343;-65
2021/09/02 09:39:11;;;;;;;6.35;4.10;;;;;;;26.01;40.88;101008.84;5029505;28;20533;-66
2021/09/02 09:41:40;;;;;;;6.15;3.70;;;;;;;26.08;40.94;101001.41;5028866;28;20095;-66
2021/09/02 09:44:28;;;;;;;8.55;4.28;;;;;;;25.96;41.82;101007.78;5029937;28;20080;-66
2021/09/02 09:47:10;;;;;;;8.45;4.53;;;;;;;25.86;41.69;101001.91;5029822;28;20029;-66
2021/09/02 09:49:55;;;;;;;5.75;3.70;;;;;;;25.84;42.16;101007.59;5029864;28;20054;-66
2021/09/02 09:52:33;;;;;;;6.38;3.60;;;;;;;25.87;42.51;101007.19;5029923;28;20037;-66
2021/09/02 09:55:10;;;;;;;7.32;4.45;;;;;;;25.87;41.95;101009.06;5029804;28;20390;-66
2021/09/02 09:57:38;;;;;;;5.65;3.92;;;;;;;25.85;41.97;101009.28;5029900;28;20021;-66
2021/09/02 10:00:10;;;;;;;5.90;3.42;;;;;;;25.80;41.89;101000.81;5030014;28;20052;-65
2021/09/02 10:02:38;;;;;;;6.25;3.95;;;;;;;25.77;41.48;100997.69;5021363;28;20034;-66
2021/09/02 10:05:05;;;;;;;4.53;3.88;;;;;;;25.70;41.91;100997.69;5009762;28;20081;-64
2021/09/02 10:07:32;;;;;;;6.43;3.75;;;;;;;25.58;41.94;100982.97;5010111;28;20030;-64
2021/09/02 10:09:58;;;;;;;7.05;3.50;;;;;;;25.55;41.67;100999.03;5010090;28;20029;-65
2021/09/02 10:12:24;;;;;;;8.15;3.80;;;;;;;25.52;41.21;100994.81;5008835;28;20034;-65
2021/09/02 10:14:50;;;;;;;6.25;3.78;;;;;;;25.60;40.79;100997.31;5009930;28;20030;-65
2021/09/02 10:17:16;;;;;;;5.13;3.40;;;;;;;25.53;40.85;100990.13;5011044;28;20033;-65
2021/09/02 10:19:42;;;;;;;4.10;3.40;;;;;;;25.51;41.18;100992.28;5013670;28;20164;-65
2021/09/02 10:22:08;;;;;;;7.45;4.25;;;;;;;25.51;41.56;101006.88;5013679;28;20033;-65
2021/09/02 10:24:37;;;;;;;5.72;3.70;;;;;;;25.49;42.04;101003.47;5013770;28;20137;-65
2021/09/02 10:27:22;;;;;;;6.00;3.70;;;;;;;25.43;41.88;100993.34;5013351;28;20486;-65
2021/09/02 10:29:50;;;;;;;6.50;3.60;;;;;;;25.41;41.17;101002.88;5013205;28;20324;-65
2021/09/02 10:32:26;;;;;;;5.70;3.33;;;;;;;25.41;41.55;101009.19;5012009;28;20021;-64
2021/09/02 10:35:14;;;;;;;6.60;3.40;;;;;;;25.42;41.36;100999.03;5013448;28;20034;-65
2021/09/02 10:37:41;;;;;;;7.55;3.38;;;;;;;25.37;40.66;100998.88;5013176;28;20105;-65
2021/09/02 10:40:27;;;;;;;5.80;3.40;;;;;;;25.32;40.83;100995.91;5013180;28;20755;-65
2021/09/02 10:42:57;;;;;;;6.63;3.90;;;;;;;25.42;40.78;100999.03;5013091;28;20030;-66
2021/09/02 10:45:29;;;;;;;5.15;3.47;;;;;;;25.28;41.34;101000.09;5013195;28;20026;-66
2021/09/02 10:48:00;;;;;;;5.85;3.38;;;;;;;25.12;41.06;101000.53;5013205;28;20018;-65
2021/09/02 10:50:34;;;;;;;5.20;2.88;;;;;;;25.05;40.92;101003.28;5013299;28;20441;-65
2021/09/02 10:53:18;;;;;;;9.93;3.63;;;;;;;24.84;41.12;100988.91;5013192;28;20025;-65
2021/09/02 10:55:52;;;;;;;6.22;3.33;;;;;;;24.81;41.20;101003.91;5013297;28;20469;-65
2021/09/02 10:58:49;;;;;;;6.32;4.00;;;;;;;24.68;42.06;101009.41;5013175;28;20037;-65
2021/09/02 11:01:20;;;;;;;7.10;3.65;;;;;;;24.62;41.96;101015.69;5012804;28;20040;-65
2021/09/02 11:03:46;;;;;;;7.78;3.53;;;;;;;24.61;42.43;101018.63;5012579;28;20053;-65
2021/09/02 11:06:12;;;;;;;4.82;3.30;;;;;;;24.55;42.96;101025.81;5013136;28;20022;-65
2021/09/02 11:08:40;;;;;;;5.07;3.72;;;;;;;24.57;43.12;101020.97;5012927;28;20065;-65
2021/09/02 11:11:15;;;;;;;8.52;4.03;;;;;;;24.56;43.16;101016.50;5029418;28;20769;-65
2021/09/02 11:13:41;;;;;;;6.05;3.50;;;;;;;24.57;43.43;101000.91;5012558;28;20029;-65
2021/09/02 11:16:15;;;;;;;5.65;3.55;;;;;;;24.66;42.32;101016.16;5012651;28;20040;-65
2021/09/02 11:18:45;;;;;;;;;;;;;;;24.63;42.25;101019.28;5011705;28;20041;-65
2021/09/02 11:21:16;;;;;;;9.20;3.35;;;;;;;24.68;42.00;101012.13;5012681;28;19972;-65